Time;durP1;ratioP1;P1;durP2;ratioP2;P2;SDS_P1;SDS_P2;PMS_P1;PMS_P2;Temp;Humidity;BMP_temperature;BMP_pressure;BME280_temperature;BME280_humidity;BME280_pressure;Samples;Min_cycle;Max_cycle;Signal;HPM_P1;HPM_P2
2023/04/21 00:00:16;;;;;;;7.57;2.78;;;;;;;15.85;51.92;98980.56;5035212;28;20064;-73
2023/04/21 00:02:42;;;;;;;10.23;2.80;;;;;;;15.79;51.51;98976.41;5036539;28;20053;-73
2023/04/21 00:05:12;;;;;;;9.13;3.10;;;;;;;15.73;51.89;98972.22;5036632;28;20128;-73
2023/04/21 00:07:39;;;;;;;7.43;2.90;;;;;;;15.68;52.38;98970.75;5037034;28;20448;-73
2023/04/21 00:10:10;;;;;;;9.07;3.45;;;;;;;15.63;52.78;98962.97;5036345;28;20069;-73
2023/04/21 00:12:37;;;;;;;6.85;2.72;;;;;;;15.60;52.36;98965.78;5037076;28;20068;-73
2023/04/21 00:15:03;;;;;;;9.18;3.10;;;;;;;15.58;52.15;98960.53;5036399;28;20113;-73
2023/04/21 00:17:28;;;;;;;9.33;2.93;;;;;;;15.54;52.57;98955.44;5036466;28;20025;-73
2023/04/21 00:19:54;;;;;;;7.63;3.08;;;;;;;15.49;52.64;98959.16;5036554;28;20045;-73
2023/04/21 00:22:20;;;;;;;8.57;2.80;;;;;;;15.49;52.89;98961.81;5036468;28;20587;-73
2023/04/21 00:24:46;;;;;;;7.00;3.22;;;;;;;15.49;52.90;98958.31;5035304;28;20018;-73
2023/04/21 00:27:12;;;;;;;8.73;2.93;;;;;;;15.48;53.08;98956.59;5036829;28;20025;-73
2023/04/21 00:29:39;;;;;;;7.32;2.80;;;;;;;15.45;53.25;98952.28;5035689;28;20106;-73
2023/04/21 00:32:07;;;;;;;6.82;3.15;;;;;;;15.47;52.99;98957.53;5032997;28;20033;-73
2023/04/21 00:34:33;;;;;;;12.15;5.28;;;;;;;15.43;53.23;98956.78;5036159;28;20452;-73
2023/04/21 00:36:58;;;;;;;12.00;4.30;;;;;;;15.42;53.31;98970.97;5036561;28;20124;-73
2023/04/21 00:39:24;;;;;;;9.05;3.80;;;;;;;15.40;53.20;98974.63;5036170;28;20405;-73
2023/04/21 00:41:50;;;;;;;7.83;3.40;;;;;;;15.41;53.43;98968.38;5036557;28;20052;-73
2023/04/21 00:44:15;;;;;;;7.28;2.90;;;;;;;15.40;53.58;98967.53;5038319;28;20025;-73
2023/04/21 00:46:42;;;;;;;6.90;2.97;;;;;;;15.40;53.33;98971.97;5040254;28;20541;-73
2023/04/21 00:49:07;;;;;;;10.13;3.10;;;;;;;15.31;53.88;98971.47;5038735;28;20063;-73
2023/04/21 00:51:35;;;;;;;7.00;2.93;;;;;;;15.29;53.72;98973.31;5039954;28;20037;-73
2023/04/21 00:54:05;;;;;;;9.02;3.40;;;;;;;15.28;54.25;98982.22;5035858;28;20048;-73
2023/04/21 00:56:32;;;;;;;6.63;2.85;;;;;;;15.26;54.09;98983.19;5033520;28;20026;-73
2023/04/21 00:58:59;;;;;;;7.32;3.00;;;;;;;15.25;53.88;98973.53;5039898;28;20100;-73
2023/04/21 01:01:26;;;;;;;10.15;3.40;;;;;;;15.21;54.42;98976.31;5039737;28;20078;-73
2023/04/21 01:03:51;;;;;;;9.17;3.50;;;;;;;15.19;54.15;98967.56;5039421;28;20033;-73
2023/04/21 01:06:18;;;;;;;8.88;3.30;;;;;;;15.21;54.15;98970.16;5039631;28;20029;-73
2023/04/21 01:08:45;;;;;;;7.65;3.33;;;;;;;15.18;54.67;98967.63;5039774;28;20040;-73
2023/04/21 01:11:12;;;;;;;8.85;3.13;;;;;;;15.15;54.32;98971.28;5038703;28;20440;-73
2023/04/21 01:13:38;;;;;;;11.50;3.17;;;;;;;15.14;54.40;98969.56;5039775;28;20045;-73
2023/04/21 01:16:04;;;;;;;8.32;3.25;;;;;;;15.15;54.29;98971.28;5039491;28;20072;-73
2023/04/21 01:18:30;;;;;;;8.00;3.28;;;;;;;15.13;54.51;98967.84;5039457;28;20117;-73
2023/04/21 01:20:57;;;;;;;7.93;3.07;;;;;;;15.04;54.58;98973.53;5039424;28;20150;-73
2023/04/21 01:23:22;;;;;;;10.27;2.90;;;;;;;14.93;54.95;98966.91;5038087;28;20120;-73
2023/04/21 01:25:50;;;;;;;7.43;3.00;;;;;;;14.71;56.29;98972.28;5039441;28;20521;-73
2023/04/21 01:28:20;;;;;;;9.55;3.15;;;;;;;14.63;56.78;98975.22;5039355;28;20437;-73
2023/04/21 01:30:46;;;;;;;8.32;3.17;;;;;;;14.54;56.52;98970.28;5034415;28;20029;-73
2023/04/21 01:33:11;;;;;;;7.70;3.00;;;;;;;14.47;56.48;98980.28;5037985;28;20028;-73
2023/04/21 01:35:37;;;;;;;8.37;3.50;;;;;;;14.47;57.02;98985.59;5039416;28;20021;-73
2023/04/21 01:38:02;;;;;;;11.27;3.85;;;;;;;14.34;57.80;98982.53;5039142;28;20037;-73
2023/04/21 01:40:28;;;;;;;9.33;3.40;;;;;;;14.21;58.07;98978.69;5039049;28;20044;-73
2023/04/21 01:42:53;;;;;;;7.97;3.23;;;;;;;14.11;58.39;98982.63;5039095;28;20041;-73
2023/04/21 01:45:19;;;;;;;7.25;3.25;;;;;;;13.98;58.86;98982.22;5038234;28;20108;-73
2023/04/21 01:47:44;;;;;;;9.60;3.60;;;;;;;13.90;59.35;98979.88;5038881;28;20055;-73
2023/04/21 01:50:10;;;;;;;9.80;3.93;;;;;;;13.85;59.29;98974.75;5037827;28;20040;-73
2023/04/21 01:52:35;;;;;;;11.27;3.65;;;;;;;13.83;59.56;98983.66;5038796;28;20021;-73
2023/04/21 01:55:01;;;;;;;10.57;3.50;;;;;;;13.70;60.06;98980.63;5038057;28;20097;-73
2023/04/21 01:57:26;;;;;;;8.57;3.73;;;;;;;13.61;60.63;98984.47;5038724;28;20397;-73
2023/04/21 01:59:52;;;;;;;9.17;4.40;;;;;;;13.53;60.87;98975.97;5038794;28;20029;-73
2023/04/21 02:02:17;;;;;;;7.87;3.57;;;;;;;13.51;60.31;98989.28;5038234;28;20292;-73
2023/04/21 02:04:42;;;;;;;11.00;3.80;;;;;;;13.51;60.37;98988.41;5037367;28;20032;-73
2023/04/21 02:07:08;;;;;;;7.63;3.53;;;;;;;13.42;60.82;98990.44;5038643;28;20029;-73
2023/04/21 02:09:33;;;;;;;10.67;4.07;;;;;;;13.39;61.64;98989.66;5037476;28;20037;-73
2023/04/21 02:11:59;;;;;;;7.03;3.28;;;;;;;13.35;61.22;98994.19;5038606;28;20021;-73
2023/04/21 02:14:25;;;;;;;9.27;4.27;;;;;;;13.33;61.39;98994.28;5038348;28;20033;-73
2023/04/21 02:16:50;;;;;;;12.43;4.38;;;;;;;13.31;61.67;98997.88;5038251;28;20033;-73
2023/04/21 02:19:15;;;;;;;12.63;4.70;;;;;;;13.25;62.31;99001.59;5038245;28;20057;-73
2023/04/21 02:21:41;;;;;;;13.23;4.63;;;;;;;13.20;62.40;98998.25;5038202;28;20025;-73
2023/04/21 02:24:06;;;;;;;10.43;4.57;;;;;;;13.10;63.34;99005.63;5038228;28;20112;-73
2023/04/21 02:26:32;;;;;;;7.72;4.05;;;;;;;13.12;62.94;99009.09;5038228;28;20500;-73
2023/04/21 02:28:57;;;;;;;10.43;3.80;;;;;;;13.13;62.63;99000.25;5038174;28;20120;-73
2023/04/21 02:31:22;;;;;;;11.70;4.63;;;;;;;13.11;63.27;99001.22;5031620;28;20453;-73
2023/04/21 02:33:48;;;;;;;14.10;4.73;;;;;;;13.09;63.34;99003.06;5038080;28;20026;-73
2023/04/21 02:36:13;;;;;;;10.43;4.40;;;;;;;13.10;63.51;99005.63;5037861;28;20064;-73
2023/04/21 02:38:39;;;;;;;8.97;4.60;;;;;;;13.10;62.77;99005.63;5036559;28;20040;-73
2023/04/21 02:41:04;;;;;;;9.30;4.10;;;;;;;13.12;63.48;99008.25;5038012;28;20124;-73
2023/04/21 02:43:30;;;;;;;12.30;4.23;;;;;;;13.11;63.30;99017.94;5038080;28;20117;-73
2023/04/21 02:45:56;;;;;;;12.07;5.28;;;;;;;13.09;63.61;99006.56;5037640;28;20033;-73
2023/04/21 02:48:22;;;;;;;10.33;4.83;;;;;;;13.06;64.12;99009.31;5037682;28;20037;-73
2023/04/21 02:50:51;;;;;;;10.95;5.05;;;;;;;13.03;64.91;99004.13;5037704;28;20036;-73
2023/04/21 02:53:18;;;;;;;9.87;4.70;;;;;;;13.00;64.61;99006.88;5036300;28;20025;-73
2023/04/21 02:55:43;;;;;;;12.73;5.28;;;;;;;12.97;65.17;99007.00;5037567;28;20021;-73
2023/04/21 02:58:09;;;;;;;11.23;4.90;;;;;;;12.97;64.31;98999.91;5036428;28;20043;-73
2023/04/21 03:00:34;;;;;;;11.18;5.05;;;;;;;12.96;64.20;98998.19;5037203;28;20071;-73
2023/04/21 03:03:00;;;;;;;9.87;5.10;;;;;;;12.96;64.35;98995.56;5037684;28;20408;-73
2023/04/21 03:05:25;;;;;;;13.65;5.75;;;;;;;12.98;64.77;98995.50;5037439;28;20891;-73
2023/04/21 03:07:51;;;;;;;11.90;5.50;;;;;;;12.98;64.50;98993.72;5037368;28;20044;-73
2023/04/21 03:10:16;;;;;;;13.00;5.90;;;;;;;12.90;65.16;99004.56;5037520;28;20061;-73
2023/04/21 03:12:42;;;;;;;12.37;5.23;;;;;;;12.83;65.41;99005.69;5037587;28;20100;-73
2023/04/21 03:15:07;;;;;;;16.48;6.20;;;;;;;12.77;65.90;99003.25;5037248;28;20762;-73
2023/04/21 03:17:33;;;;;;;13.03;5.73;;;;;;;12.80;65.49;99005.78;5035958;28;20061;-73
2023/04/21 03:19:58;;;;;;;12.83;6.17;;;;;;;12.75;66.20;98999.81;5037255;28;20398;-73
2023/04/21 03:22:23;;;;;;;17.27;6.38;;;;;;;12.77;66.08;99000.59;5037433;28;20108;-73
2023/04/21 03:24:49;;;;;;;14.50;7.63;;;;;;;12.76;66.15;99012.09;5037092;28;20029;-73
2023/04/21 03:27:14;;;;;;;19.30;6.73;;;;;;;12.69;66.38;99011.41;5037329;28;20101;-73
2023/04/21 03:29:40;;;;;;;16.87;5.73;;;;;;;12.69;66.14;99011.41;5037021;28;20037;-73
2023/04/21 03:32:05;;;;;;;13.03;5.70;;;;;;;12.72;66.12;99021.03;5030495;28;20379;-73
2023/04/21 03:34:30;;;;;;;12.77;5.82;;;;;;;12.63;66.01;99020.41;5037240;28;20041;-73
2023/04/21 03:36:56;;;;;;;11.57;5.87;;;;;;;12.69;66.13;99021.13;5037235;28;20096;-73
2023/04/21 03:39:21;;;;;;;15.00;7.20;;;;;;;12.67;66.81;99022.97;5035447;28;20120;-73
2023/04/21 03:41:47;;;;;;;11.40;5.93;;;;;;;12.70;66.37;99012.31;5035849;28;20025;-73
2023/04/21 03:44:12;;;;;;;12.67;6.00;;;;;;;12.65;66.63;99017.72;5036882;28;20029;-73
2023/04/21 03:46:37;;;;;;;12.90;6.35;;;;;;;12.60;66.84;99019.66;5036977;28;20035;-73
2023/04/21 03:49:03;;;;;;;14.27;6.33;;;;;;;12.59;66.46;99018.78;5036602;28;20080;-73
2023/04/21 03:51:28;;;;;;;16.70;6.50;;;;;;;12.56;66.68;99021.53;5036948;28;20029;-72
2023/04/21 03:53:53;;;;;;;14.67;7.80;;;;;;;12.52;67.54;99025.19;5035236;28;20033;-73
2023/04/21 03:56:19;;;;;;;15.33;7.03;;;;;;;12.51;67.25;99023.47;5035383;28;20018;-72
2023/04/21 03:58:44;;;;;;;13.82;6.60;;;;;;;12.48;67.42;99024.41;5035481;28;20478;-73
2023/04/21 04:01:10;;;;;;;14.20;6.67;;;;;;;12.46;67.54;99022.75;5036663;28;20748;-73
2023/04/21 04:03:35;;;;;;;15.43;6.83;;;;;;;12.47;67.39;99032.41;5036411;28;20081;-73
2023/04/21 04:06:02;;;;;;;15.67;6.97;;;;;;;12.44;67.65;99029.84;5036863;28;20049;-73
2023/04/21 04:08:29;;;;;;;15.47;6.73;;;;;;;12.39;67.89;99023.84;5035696;28;20271;-73
2023/04/21 04:10:55;;;;;;;14.05;6.97;;;;;;;12.39;68.04;99031.75;5035570;28;20029;-73
2023/04/21 04:13:21;;;;;;;15.70;7.45;;;;;;;12.38;67.86;99035.31;5035574;28;20026;-73
2023/04/21 04:15:47;;;;;;;17.13;7.25;;;;;;;12.38;67.68;99028.25;5036634;28;20542;-72
2023/04/21 04:18:12;;;;;;;16.10;7.80;;;;;;;12.37;67.88;99028.28;5037195;28;20037;-73
2023/04/21 04:20:38;;;;;;;20.73;8.10;;;;;;;12.34;68.49;99032.75;5039298;28;20063;-73
2023/04/21 04:23:03;;;;;;;17.87;8.03;;;;;;;12.30;68.21;99039.06;5040694;28;20399;-73
2023/04/21 04:25:29;;;;;;;16.73;7.30;;;;;;;12.28;68.07;99038.25;5040786;28;20061;-73
2023/04/21 04:27:54;;;;;;;15.82;7.85;;;;;;;12.26;68.26;99034.78;5039497;28;20033;-72
2023/04/21 04:30:20;;;;;;;15.53;7.70;;;;;;;12.26;68.03;99029.50;5039120;28;20040;-73
2023/04/21 04:32:45;;;;;;;15.97;7.17;;;;;;;12.19;68.61;99030.63;5035208;28;20021;-73
2023/04/21 04:35:12;;;;;;;16.58;7.05;;;;;;;12.14;68.59;99030.75;5040557;28;20116;-73
2023/04/21 04:37:38;;;;;;;16.73;7.95;;;;;;;12.09;68.85;99031.78;5040548;28;20033;-72
2023/04/21 04:40:11;;;;;;;16.13;8.13;;;;;;;12.07;68.90;99037.13;5040291;28;20052;-73
2023/04/21 04:42:38;;;;;;;17.92;7.35;;;;;;;12.08;68.49;99030.94;5038837;28;20033;-73
2023/04/21 04:45:05;;;;;;;16.98;7.60;;;;;;;12.10;68.79;99029.13;5040397;28;20029;-73
2023/04/21 04:47:30;;;;;;;14.48;7.10;;;;;;;12.09;68.71;99031.78;5040011;28;20075;-72
2023/04/21 04:49:55;;;;;;;19.50;7.40;;;;;;;12.12;68.57;99026.41;5040055;28;20037;-73
2023/04/21 04:52:21;;;;;;;16.17;7.97;;;;;;;12.11;68.73;99025.56;5039900;28;20033;-72
2023/04/21 04:54:46;;;;;;;16.93;8.50;;;;;;;12.05;69.41;99031.00;5040320;28;20025;-73
2023/04/21 04:57:11;;;;;;;17.17;7.97;;;;;;;12.05;69.10;99033.66;5038622;28;20108;-73
2023/04/21 04:59:37;;;;;;;15.30;7.72;;;;;;;12.02;69.44;99033.75;5040083;28;20025;-73
2023/04/21 05:02:02;;;;;;;16.30;8.10;;;;;;;12.00;69.44;99032.91;5039581;28;20029;-73
2023/04/21 05:04:28;;;;;;;15.83;8.07;;;;;;;12.00;69.17;99033.78;5039854;28;20032;-72
2023/04/21 05:06:53;;;;;;;18.27;7.60;;;;;;;11.99;69.48;99034.69;5039743;28;20080;-72
2023/04/21 05:09:19;;;;;;;18.67;8.07;;;;;;;11.99;69.31;99031.16;5036884;28;20392;-72
2023/04/21 05:11:45;;;;;;;16.63;7.90;;;;;;;11.99;69.57;99039.09;5026885;28;20043;-72
2023/04/21 05:14:10;;;;;;;16.03;7.93;;;;;;;12.00;69.03;99033.78;5043810;28;20140;-72
2023/04/21 05:16:35;;;;;;;14.40;6.80;;;;;;;12.03;68.81;99033.72;5039497;28;20033;-73
2023/04/21 05:19:02;;;;;;;14.73;7.37;;;;;;;12.11;68.29;99040.53;5032395;28;20057;-73
2023/04/21 05:21:27;;;;;;;15.95;7.38;;;;;;;12.14;68.08;99040.44;5039233;28;20104;-72
2023/04/21 05:23:57;;;;;;;17.17;7.45;;;;;;;12.15;68.49;99045.69;5039635;28;20117;-72
2023/04/21 05:26:27;;;;;;;15.67;8.20;;;;;;;12.11;69.06;99038.75;5039490;28;20072;-73
2023/04/21 05:28:56;;;;;;;16.15;7.78;;;;;;;12.09;69.02;99047.63;5039077;28;20037;-73
2023/04/21 05:31:22;;;;;;;15.40;8.13;;;;;;;12.14;68.76;99048.34;5033612;28;20059;-73
2023/04/21 05:33:48;;;;;;;17.15;7.63;;;;;;;12.17;68.36;99050.88;5039315;28;20030;-73
2023/04/21 05:36:13;;;;;;;15.80;8.07;;;;;;;12.23;68.60;99053.38;5039136;28;20033;-72
2023/04/21 05:38:39;;;;;;;18.63;8.03;;;;;;;12.24;68.67;99052.44;5028236;28;20030;-72
2023/04/21 05:41:04;;;;;;;15.00;7.80;;;;;;;12.30;68.29;99057.53;5029311;28;20033;-73
2023/04/21 05:43:33;;;;;;;17.37;8.87;;;;;;;12.29;68.86;99055.81;5028363;28;20034;-72
2023/04/21 05:46:03;;;;;;;18.20;8.55;;;;;;;12.32;68.53;99061.00;5037495;28;20033;-72
2023/04/21 05:48:28;;;;;;;17.90;8.57;;;;;;;12.33;68.62;99057.44;5038954;28;20490;-72
2023/04/21 05:50:55;;;;;;;16.07;8.37;;;;;;;12.48;67.94;99056.09;5037639;28;20416;-73
2023/04/21 05:53:22;;;;;;;16.77;8.32;;;;;;;12.60;67.67;99059.28;5039255;28;20094;-73
2023/04/21 05:55:48;;;;;;;18.23;7.53;;;;;;;12.78;66.95;99055.16;5038482;28;20112;-73
2023/04/21 05:58:13;;;;;;;17.00;8.17;;;;;;;12.99;66.55;99061.50;5038658;28;20057;-73
2023/04/21 06:00:38;;;;;;;14.83;7.77;;;;;;;13.05;66.81;99063.09;5032785;28;20025;-72
2023/04/21 06:03:04;;;;;;;15.17;7.60;;;;;;;13.18;66.58;99061.78;5037241;28;20315;-72
2023/04/21 06:05:29;;;;;;;18.90;7.37;;;;;;;13.22;66.50;99051.94;5037108;28;20467;-73
2023/04/21 06:07:55;;;;;;;17.53;7.53;;;;;;;13.36;65.97;99059.38;5036756;28;20052;-73
2023/04/21 06:10:20;;;;;;;18.67;7.30;;;;;;;13.52;65.48;99059.75;5036543;28;20025;-72
2023/04/21 06:12:46;;;;;;;15.13;7.80;;;;;;;13.67;65.61;99063.63;5035775;28;20390;-73
2023/04/21 06:15:11;;;;;;;14.57;7.00;;;;;;;13.75;65.02;99066.84;5026515;28;20034;-72
2023/04/21 06:17:36;;;;;;;13.30;7.23;;;;;;;13.89;64.72;99068.13;5029907;28;20033;-72
2023/04/21 06:20:02;;;;;;;16.80;6.43;;;;;;;14.01;64.39;99075.59;5035759;28;20042;-73
2023/04/21 06:22:28;;;;;;;13.45;6.35;;;;;;;14.09;64.33;99071.78;5037998;28;20029;-73
2023/04/21 06:24:53;;;;;;;16.40;7.00;;;;;;;14.07;64.34;99070.06;5036884;28;20037;-74
2023/04/21 06:27:19;;;;;;;14.43;6.57;;;;;;;14.17;64.14;99067.09;5037479;28;20465;-74
2023/04/21 06:29:44;;;;;;;15.57;6.83;;;;;;;14.29;63.87;99068.41;5036122;28;20028;-73
2023/04/21 06:32:10;;;;;;;17.37;7.20;;;;;;;14.39;63.76;99074.22;5036065;28;20025;-73
2023/04/21 06:34:36;;;;;;;14.55;6.70;;;;;;;14.40;63.64;99073.28;5036568;28;20087;-73
2023/04/21 06:37:02;;;;;;;15.00;6.88;;;;;;;14.38;63.82;99068.03;5035037;28;20034;-72
2023/04/21 06:39:27;;;;;;;14.93;6.53;;;;;;;14.30;63.89;99068.34;5040673;28;20493;-72
2023/04/21 06:41:53;;;;;;;15.25;7.38;;;;;;;14.26;64.36;99064.09;5036937;28;20033;-72
2023/04/21 06:44:19;;;;;;;15.60;6.77;;;;;;;14.30;64.44;99063.03;5037631;28;20109;-73
2023/04/21 06:46:46;;;;;;;13.63;7.05;;;;;;;14.38;64.24;99064.53;5035337;28;20053;-72
2023/04/21 06:49:11;;;;;;;13.63;6.72;;;;;;;14.49;63.82;99073.78;5037688;28;20029;-73
2023/04/21 06:51:37;;;;;;;12.30;5.80;;;;;;;14.59;63.85;99063.69;5036499;28;20503;-73
2023/04/21 06:54:02;;;;;;;10.17;5.47;;;;;;;14.68;63.70;99073.03;5037113;28;20029;-72
2023/04/21 06:56:28;;;;;;;12.10;6.13;;;;;;;14.77;63.60;99061.25;5035977;28;20068;-73
2023/04/21 06:58:54;;;;;;;11.70;6.27;;;;;;;14.82;63.59;99063.72;5037491;28;20030;-72
2023/04/21 07:01:20;;;;;;;13.40;5.97;;;;;;;14.89;63.36;99058.09;5037170;28;20351;-72
2023/04/21 07:03:45;;;;;;;15.75;5.47;;;;;;;14.91;63.36;99064.19;5037266;28;20049;-73
2023/04/21 07:06:11;;;;;;;11.00;5.07;;;;;;;15.09;62.96;99056.41;5035974;28;20033;-73
2023/04/21 07:08:37;;;;;;;14.53;5.37;;;;;;;15.29;62.62;99049.38;5037365;28;20455;-73
2023/04/21 07:11:02;;;;;;;12.07;5.82;;;;;;;15.46;62.22;99048.66;5028844;28;20021;-73
2023/04/21 07:13:28;;;;;;;11.00;5.57;;;;;;;15.61;62.08;99047.94;5037627;28;20029;-73
2023/04/21 07:15:53;;;;;;;11.47;5.50;;;;;;;15.69;61.70;99044.97;5037282;28;20025;-73
2023/04/21 07:18:19;;;;;;;10.83;5.30;;;;;;;15.82;61.42;99052.38;5036700;28;20288;-73
2023/04/21 07:20:45;;;;;;;8.53;4.57;;;;;;;15.94;61.34;99057.16;5037167;28;20053;-73
2023/04/21 07:23:10;;;;;;;13.35;5.53;;;;;;;16.10;60.97;99051.16;5037261;28;20548;-73
2023/04/21 07:25:35;;;;;;;11.93;5.30;;;;;;;16.24;60.82;99051.34;5037036;28;20073;-73
2023/04/21 07:28:02;;;;;;;13.87;4.50;;;;;;;16.34;60.34;99051.78;5036299;28;20065;-73
2023/04/21 07:30:28;;;;;;;9.20;4.03;;;;;;;16.51;59.81;99042.97;5033818;28;20036;-73
2023/04/21 07:32:54;;;;;;;10.50;4.80;;;;;;;16.57;59.56;99048.03;5035751;28;20045;-73
2023/04/21 07:35:20;;;;;;;13.30;5.03;;;;;;;16.65;59.32;99047.66;5035913;28;20167;-73
2023/04/21 07:37:45;;;;;;;9.17;4.20;;;;;;;16.65;59.76;99035.22;5035277;28;20481;-73
2023/04/21 07:40:11;;;;;;;11.10;4.03;;;;;;;16.87;59.02;99039.47;5036568;28;20029;-74
2023/04/21 07:42:37;;;;;;;13.07;4.30;;;;;;;17.05;58.96;99031.53;5036875;28;20108;-74
2023/04/21 07:45:03;;;;;;;9.97;3.83;;;;;;;17.25;58.36;99029.66;5037317;28;20034;-74
2023/04/21 07:47:29;;;;;;;11.73;4.30;;;;;;;17.43;57.80;99031.34;5034374;28;20029;-74
2023/04/21 07:49:54;;;;;;;9.63;3.63;;;;;;;17.48;57.85;99034.66;5026534;28;20412;-74
2023/04/21 07:52:20;;;;;;;11.17;4.20;;;;;;;17.72;57.45;99031.59;5036330;28;20025;-74
2023/04/21 07:54:45;;;;;;;7.18;3.22;;;;;;;17.96;56.95;99031.22;5036389;28;20537;-73
2023/04/21 07:57:11;;;;;;;9.13;3.40;;;;;;;18.30;56.35;99037.38;5036440;28;20033;-73
2023/04/21 07:59:36;;;;;;;12.27;3.30;;;;;;;18.44;55.59;99038.41;5036500;28;20090;-74
2023/04/21 08:02:02;;;;;;;12.13;4.50;;;;;;;18.48;55.43;99023.97;5036553;28;20405;-73
2023/04/21 08:04:27;;;;;;;11.70;4.40;;;;;;;18.50;55.43;99028.25;5036497;28;20037;-73
2023/04/21 08:06:52;;;;;;;10.80;4.50;;;;;;;18.60;54.85;99020.59;5036487;28;20525;-73
2023/04/21 08:09:18;;;;;;;9.80;4.60;;;;;;;18.81;54.24;99022.97;5035643;28;20068;-73
2023/04/21 08:11:43;;;;;;;9.70;3.60;;;;;;;18.84;54.61;99017.44;5036690;28;20025;-73
2023/04/21 08:14:10;;;;;;;7.67;3.80;;;;;;;19.10;54.11;99008.91;5036503;28;20028;-73
2023/04/21 08:16:40;;;;;;;7.63;3.60;;;;;;;19.41;53.36;99004.38;5036237;28;20291;-73
2023/04/21 08:19:07;;;;;;;8.88;3.45;;;;;;;19.46;52.46;99008.50;5034773;28;20054;-74
2023/04/21 08:21:32;;;;;;;9.18;3.78;;;;;;;19.41;52.54;99013.25;5036446;28;20412;-73
2023/04/21 08:23:58;;;;;;;10.37;3.43;;;;;;;19.43;52.36;99006.00;5036146;28;20112;-74
2023/04/21 08:26:24;;;;;;;9.45;3.40;;;;;;;19.48;52.65;99011.03;5035570;28;20115;-73
2023/04/21 08:28:50;;;;;;;9.80;3.63;;;;;;;19.48;52.22;99003.03;5035745;28;20033;-74
2023/04/21 08:31:17;;;;;;;9.95;3.40;;;;;;;19.63;52.26;99002.09;5035776;28;20060;-75
2023/04/21 08:33:43;;;;;;;12.07;3.53;;;;;;;19.79;52.19;98988.63;5035835;28;20032;-74
2023/04/21 08:36:09;;;;;;;10.27;3.40;;;;;;;19.87;51.70;98988.16;5035781;28;20041;-74
2023/04/21 08:38:34;;;;;;;9.70;3.50;;;;;;;19.97;51.77;98985.78;5034746;28;20033;-74
2023/04/21 08:41:02;;;;;;;9.27;3.15;;;;;;;20.15;51.16;98982.91;5036198;28;20048;-74
2023/04/21 08:43:27;;;;;;;10.33;3.60;;;;;;;20.22;50.81;98984.22;5036237;28;20028;-76
2023/04/21 08:45:53;;;;;;;10.02;3.60;;;;;;;20.21;50.09;98979.84;5036445;28;20025;-73
2023/04/21 08:48:21;;;;;;;9.73;3.97;;;;;;;20.06;50.13;98976.34;5036118;28;20397;-74
2023/04/21 08:50:49;;;;;;;11.97;3.77;;;;;;;20.11;50.55;98979.56;5035934;28;20060;-74
2023/04/21 08:53:15;;;;;;;9.90;3.90;;;;;;;20.27;50.14;98984.78;5036624;28;20117;-74
2023/04/21 08:55:41;;;;;;;8.60;3.33;;;;;;;20.32;49.84;98988.00;5036007;28;20041;-74
2023/04/21 08:58:08;;;;;;;8.10;3.70;;;;;;;20.24;50.06;98990.31;5034655;28;20412;-74
2023/04/21 09:00:36;;;;;;;11.57;3.55;;;;;;;20.36;49.84;98994.84;5035034;28;20060;-72
2023/04/21 09:03:02;;;;;;;8.80;3.60;;;;;;;20.43;49.03;98994.47;5032451;28;20115;-72
2023/04/21 09:05:30;;;;;;;9.90;3.60;;;;;;;20.54;49.15;98991.94;5037879;28;20485;-72
2023/04/21 09:08:10;;;;;;;9.07;3.60;;;;;;;20.58;48.96;98988.09;5038336;28;20507;-71
2023/04/21 09:10:45;;;;;;;7.18;3.10;;;;;;;20.63;49.45;98987.78;5039399;28;20088;-74
2023/04/21 09:13:11;;;;;;;10.98;4.10;;;;;;;20.67;49.48;98991.13;5050371;28;20037;-71
2023/04/21 09:15:40;;;;;;;8.30;3.60;;;;;;;20.78;49.07;98984.09;5036926;28;20389;-72
2023/04/21 09:18:11;;;;;;;10.00;3.45;;;;;;;21.02;48.56;98985.25;5038571;28;20033;-74
2023/04/21 09:20:37;;;;;;;9.43;3.42;;;;;;;21.11;48.73;98983.75;5039555;28;20102;-72
2023/04/21 09:23:05;;;;;;;7.53;3.30;;;;;;;21.25;48.49;98978.31;5039076;28;20112;-73
2023/04/21 09:25:32;;;;;;;9.05;3.10;;;;;;;21.24;48.01;98979.28;5039210;28;20461;-73
2023/04/21 09:27:59;;;;;;;7.30;2.80;;;;;;;21.35;47.73;98973.19;5027535;28;20029;-72
2023/04/21 09:30:25;;;;;;;6.07;3.10;;;;;;;21.49;47.61;98978.41;5036073;28;20033;-72
2023/04/21 09:32:56;;;;;;;10.00;3.40;;;;;;;21.67;47.35;98966.53;5031519;28;20371;-72
2023/04/21 09:35:21;;;;;;;9.63;3.47;;;;;;;21.82;46.74;98972.59;5029917;28;20504;-73
2023/04/21 09:37:46;;;;;;;8.20;3.40;;;;;;;21.85;46.17;98975.94;5032557;28;20033;-72
2023/04/21 09:40:14;;;;;;;10.57;3.53;;;;;;;21.94;45.60;98974.41;5034078;28;20029;-72
2023/04/21 09:42:40;;;;;;;11.25;4.10;;;;;;;21.99;45.46;98964.22;5046299;28;20026;-73
2023/04/21 09:45:08;;;;;;;9.15;3.65;;;;;;;22.03;45.18;98970.22;5037128;28;20026;-72
2023/04/21 09:47:39;;;;;;;10.63;3.60;;;;;;;22.02;45.16;98974.72;5034033;28;20060;-73
2023/04/21 09:50:06;;;;;;;8.30;3.38;;;;;;;22.14;45.35;98977.47;5034461;28;20033;-73
2023/04/21 09:52:32;;;;;;;8.47;3.60;;;;;;;22.07;45.12;98967.22;5033766;28;20030;-72
2023/04/21 09:55:03;;;;;;;9.63;3.20;;;;;;;21.98;45.07;98972.38;5024092;28;20411;-73
2023/04/21 09:57:31;;;;;;;9.15;3.38;;;;;;;22.16;45.48;98964.81;5036647;28;20413;-73
2023/04/21 10:00:08;;;;;;;6.43;3.10;;;;;;;22.13;46.01;98965.03;5032519;28;20417;-72
2023/04/21 10:02:36;;;;;;;9.35;3.55;;;;;;;22.34;45.27;98960.78;5054415;28;20742;-71
2023/04/21 10:05:05;;;;;;;10.97;3.40;;;;;;;22.56;44.65;98963.72;5031139;28;20507;-72
2023/04/21 10:07:31;;;;;;;7.88;3.33;;;;;;;22.65;44.62;98961.19;5038189;28;20037;-72
2023/04/21 10:09:59;;;;;;;6.03;2.83;;;;;;;22.82;44.60;98967.13;5033846;28;20080;-72
2023/04/21 10:12:26;;;;;;;9.05;3.38;;;;;;;22.97;44.04;98959.72;5035528;28;20029;-71
2023/04/21 10:14:55;;;;;;;8.88;3.42;;;;;;;23.03;42.52;98967.28;5031515;28;20142;-72
2023/04/21 10:17:25;;;;;;;8.90;3.10;;;;;;;23.02;42.98;98962.03;5034800;28;20033;-72
2023/04/21 10:19:56;;;;;;;9.00;3.20;;;;;;;23.14;42.44;98958.41;5037655;28;20053;-71
2023/04/21 10:22:29;;;;;;;7.27;3.37;;;;;;;23.17;42.57;98954.63;5038039;28;20033;-72
2023/04/21 10:24:57;;;;;;;8.55;3.40;;;;;;;23.27;42.49;98962.84;5036760;28;20107;-72
2023/04/21 10:27:39;;;;;;;9.20;3.33;;;;;;;23.31;41.97;98957.13;5037338;28;20029;-73
2023/04/21 10:30:17;;;;;;;9.05;3.00;;;;;;;23.23;41.28;98959.53;5034956;28;20107;-73
2023/04/21 10:32:44;;;;;;;6.57;2.92;;;;;;;23.49;42.32;98949.44;5037453;28;20033;-73
2023/04/21 10:35:13;;;;;;;9.63;3.07;;;;;;;23.64;41.69;98946.50;5033921;28;20037;-73
2023/04/21 10:37:41;;;;;;;8.57;3.22;;;;;;;23.85;41.65;98953.81;5033082;28;20060;-73
2023/04/21 10:40:29;;;;;;;7.85;3.10;;;;;;;23.91;41.14;98942.56;5037897;28;20036;-72
2023/04/21 10:42:55;;;;;;;12.43;3.13;;;;;;;24.13;40.90;98946.22;5034830;28;20021;-72
2023/04/21 10:45:24;;;;;;;11.97;3.20;;;;;;;24.19;41.21;98945.72;5036489;28;20567;-72
2023/04/21 10:47:52;;;;;;;8.63;3.08;;;;;;;24.23;41.10;98947.16;5036554;28;20033;-71
2023/04/21 10:50:20;;;;;;;7.93;2.92;;;;;;;24.40;40.93;98937.72;5037499;28;20033;-72
2023/04/21 10:52:51;;;;;;;10.23;3.20;;;;;;;24.50;40.59;98927.88;5035967;28;20025;-72
2023/04/21 10:55:17;;;;;;;7.70;3.10;;;;;;;24.19;41.22;98934.97;5028520;28;20032;-72
2023/04/21 10:57:44;;;;;;;10.93;3.23;;;;;;;24.29;40.90;98937.75;5028074;28;20033;-72
2023/04/21 11:00:13;;;;;;;8.43;3.28;;;;;;;24.35;40.81;98932.72;5035554;28;20029;-72
2023/04/21 11:02:38;;;;;;;8.40;3.35;;;;;;;24.36;40.38;98929.03;5036335;28;20397;-73
2023/04/21 11:05:05;;;;;;;7.80;2.80;;;;;;;24.49;40.25;98925.34;5037670;28;20048;-72
2023/04/21 11:07:30;;;;;;;10.23;3.30;;;;;;;24.61;39.91;98929.69;5035838;28;20017;-72
2023/04/21 11:09:57;;;;;;;9.83;3.47;;;;;;;24.77;40.23;98923.03;5037232;28;20163;-72
2023/04/21 11:12:26;;;;;;;8.85;3.03;;;;;;;24.73;40.26;98916.19;5036885;28;20385;-72
2023/04/21 11:14:52;;;;;;;8.45;3.15;;;;;;;24.94;39.99;98918.88;5024393;28;20040;-72
2023/04/21 11:17:19;;;;;;;9.53;2.90;;;;;;;24.98;40.28;98914.09;5035539;28;20025;-72
2023/04/21 11:19:55;;;;;;;9.10;2.90;;;;;;;25.16;38.95;98911.66;5036456;28;20052;-72
2023/04/21 11:22:22;;;;;;;11.40;2.87;;;;;;;25.27;39.09;98919.63;5026699;28;20041;-72
2023/04/21 11:24:50;;;;;;;9.50;3.00;;;;;;;25.29;38.70;98914.13;5028781;28;20080;-73